createdAt,value
2022-12-08T00:02:05.677Z,10.97
2022-12-08T00:04:53.676Z,10.83
2022-12-08T00:07:39.207Z,10.97
2022-12-08T00:10:39.555Z,10.70
2022-12-08T00:12:56.630Z,10.90
2022-12-08T00:15:24.654Z,10.47
2022-12-08T00:17:53.830Z,9.53
2022-12-08T00:20:21.858Z,10.63
2022-12-08T00:22:49.728Z,9.77
2022-12-08T00:25:17.547Z,9.63
2022-12-08T00:27:45.430Z,9.83
2022-12-08T00:30:13.774Z,10.53
2022-12-08T00:32:41.688Z,9.63
2022-12-08T00:35:10.984Z,9.50
2022-12-08T00:37:38.821Z,10.50
2022-12-08T00:40:08.096Z,9.40
2022-12-08T00:42:35.959Z,9.40
2022-12-08T00:45:03.802Z,9.70
2022-12-08T00:47:31.665Z,9.67
2022-12-08T00:49:59.437Z,9.37
2022-12-08T00:52:28.663Z,10.10
2022-12-08T00:54:56.528Z,9.67
2022-12-08T00:57:24.331Z,9.53
2022-12-08T00:59:52.216Z,9.67
2022-12-08T01:02:20.198Z,10.43
2022-12-08T01:04:48.044Z,10.13
2022-12-08T01:07:16.329Z,10.37
2022-12-08T01:09:45.463Z,11.43
2022-12-08T01:12:13.276Z,12.77
2022-12-08T01:14:41.126Z,13.10
2022-12-08T01:17:09.211Z,13.80
2022-12-08T01:19:38.309Z,13.50
2022-12-08T01:22:06.166Z,14.70
2022-12-08T01:24:34.070Z,14.17
2022-12-08T01:27:03.453Z,14.47
2022-12-08T01:29:31.242Z,13.60
2022-12-08T01:31:59.060Z,13.73
2022-12-08T01:34:26.875Z,14.47
2022-12-08T01:36:54.752Z,14.73
2022-12-08T01:39:22.656Z,15.70
2022-12-08T01:41:50.467Z,14.80
2022-12-08T01:44:58.640Z,15.10
2022-12-08T01:47:32.193Z,15.27
2022-12-08T01:50:01.405Z,15.33
2022-12-08T01:52:34.490Z,14.57
2022-12-08T01:55:05.982Z,14.83
2022-12-08T01:57:37.588Z,15.47
2022-12-08T02:00:10.818Z,16.00
2022-12-08T02:02:47.282Z,16.03
2022-12-08T02:05:15.966Z,16.20
2022-12-08T02:07:44.745Z,15.20
2022-12-08T02:10:15.125Z,17.10
2022-12-08T02:12:43.069Z,15.23
2022-12-08T02:15:12.959Z,16.00
2022-12-08T02:18:02.168Z,16.07
2022-12-08T02:21:16.687Z,15.87
2022-12-08T02:24:18.691Z,15.97
2022-12-08T02:27:24.906Z,16.20
2022-12-08T02:30:16.576Z,15.70
2022-12-08T02:33:10.327Z,15.27
2022-12-08T02:35:45.288Z,16.30
2022-12-08T02:38:22.590Z,17.27
2022-12-08T02:41:00.923Z,15.17
2022-12-08T02:43:35.289Z,16.63
2022-12-08T02:46:08.887Z,15.23
2022-12-08T02:48:37.000Z,16.57
2022-12-08T02:51:06.645Z,16.03
2022-12-08T02:53:36.786Z,15.73
2022-12-08T02:56:15.937Z,16.03
2022-12-08T02:58:57.394Z,15.47
2022-12-08T03:01:45.706Z,15.10
2022-12-08T03:04:23.515Z,15.17
2022-12-08T03:06:59.981Z,14.90
2022-12-08T03:09:35.679Z,15.67
2022-12-08T03:12:10.815Z,15.70
2022-12-08T03:14:41.853Z,15.40
2022-12-08T03:17:10.197Z,14.67
2022-12-08T03:19:40.360Z,13.87
2022-12-08T03:22:11.282Z,14.20
2022-12-08T03:24:41.512Z,13.43
2022-12-08T03:27:10.766Z,13.70
2022-12-08T03:29:38.768Z,13.20
2022-12-08T03:32:14.792Z,11.93
2022-12-08T03:34:45.151Z,11.97
2022-12-08T03:37:14.460Z,11.07
2022-12-08T03:39:42.395Z,10.80
2022-12-08T03:42:10.269Z,11.23
2022-12-08T03:44:38.200Z,10.87
2022-12-08T03:47:06.225Z,10.83
2022-12-08T03:49:34.031Z,10.67
2022-12-08T03:52:01.922Z,10.37
2022-12-08T03:54:31.135Z,10.80
2022-12-08T03:56:58.978Z,11.03
2022-12-08T03:59:26.786Z,9.90
2022-12-08T04:01:54.644Z,10.70
2022-12-08T04:04:22.487Z,9.70
2022-12-08T04:06:50.568Z,10.50
2022-12-08T04:09:18.506Z,10.03
2022-12-08T04:11:47.811Z,9.60
2022-12-08T04:14:15.695Z,8.90
2022-12-08T04:16:43.545Z,9.17
2022-12-08T04:19:11.320Z,9.10
2022-12-08T04:21:39.163Z,7.17
2022-12-08T04:24:07.640Z,7.93
2022-12-08T04:26:35.517Z,7.80
2022-12-08T04:29:04.712Z,7.47
2022-12-08T04:31:32.623Z,7.90
2022-12-08T04:34:00.521Z,6.33
2022-12-08T04:36:28.371Z,7.47
2022-12-08T04:38:56.155Z,6.63
2022-12-08T04:41:24.076Z,6.00
2022-12-08T04:43:52.116Z,5.77
2022-12-08T04:46:21.438Z,5.93
2022-12-08T04:48:49.366Z,6.20
2022-12-08T04:51:18.747Z,5.83
2022-12-08T04:53:47.230Z,5.63
2022-12-08T04:56:17.368Z,5.80
2022-12-08T04:58:45.456Z,5.80
2022-12-08T05:01:14.051Z,6.07
2022-12-08T05:03:43.525Z,5.40
2022-12-08T05:06:13.547Z,6.23
2022-12-08T05:08:41.621Z,5.60
2022-12-08T05:11:11.189Z,5.90
2022-12-08T05:13:39.047Z,5.17
2022-12-08T05:16:08.963Z,6.13
2022-12-08T05:18:37.275Z,6.03
2022-12-08T05:21:07.352Z,5.77
2022-12-08T05:23:35.647Z,6.17
2022-12-08T05:26:03.588Z,6.40
2022-12-08T05:28:46.866Z,5.80
2022-12-08T05:31:16.667Z,5.90
2022-12-08T05:33:45.893Z,5.70
2022-12-08T05:36:16.941Z,5.47
2022-12-08T05:38:45.731Z,5.83
2022-12-08T05:41:17.157Z,5.80
2022-12-08T05:43:45.132Z,5.83
2022-12-08T05:46:13.450Z,5.83
2022-12-08T05:48:41.593Z,6.10
2022-12-08T05:51:17.793Z,5.77
2022-12-08T05:53:45.690Z,5.13
2022-12-08T05:56:13.704Z,5.30
2022-12-08T05:58:41.609Z,5.67
2022-12-08T06:01:18.719Z,5.40
2022-12-08T06:03:46.609Z,5.60
2022-12-08T06:06:15.750Z,5.63
2022-12-08T06:08:43.600Z,5.70
2022-12-08T06:11:17.792Z,6.00
2022-12-08T06:13:45.782Z,4.90
2022-12-08T06:16:13.747Z,5.50
2022-12-08T06:18:41.759Z,5.53
2022-12-08T06:21:11.571Z,8.03
2022-12-08T06:23:41.047Z,7.40
2022-12-08T06:26:11.078Z,7.70
2022-12-08T06:28:39.742Z,7.83
2022-12-08T06:31:09.073Z,6.57
2022-12-08T06:33:37.587Z,6.47
2022-12-08T06:36:06.054Z,6.17
2022-12-08T06:38:34.051Z,6.23
2022-12-08T06:41:03.268Z,5.70
2022-12-08T06:43:31.080Z,5.67
2022-12-08T06:45:59.275Z,6.40
2022-12-08T06:48:27.254Z,5.80
2022-12-08T06:50:55.039Z,4.77
2022-12-08T06:53:22.921Z,5.17
2022-12-08T06:56:01.551Z,5.13
2022-12-08T06:58:30.926Z,5.10
2022-12-08T07:00:58.855Z,4.97
2022-12-08T07:03:26.882Z,5.60
2022-12-08T07:06:03.275Z,5.10
2022-12-08T07:08:32.300Z,5.37
2022-12-08T07:11:00.251Z,5.30
2022-12-08T07:13:28.076Z,4.80
2022-12-08T07:15:57.220Z,5.60
2022-12-08T07:18:25.259Z,5.50
2022-12-08T07:20:53.053Z,5.23
2022-12-08T07:23:20.981Z,5.60
2022-12-08T07:25:48.789Z,5.40
2022-12-08T07:28:16.613Z,5.57
2022-12-08T07:30:44.495Z,5.93
2022-12-08T07:33:13.723Z,5.80
2022-12-08T07:35:46.366Z,4.77
2022-12-08T07:38:17.020Z,6.23
2022-12-08T07:40:44.809Z,5.57
2022-12-08T07:43:12.649Z,5.70
2022-12-08T07:45:41.653Z,5.97
2022-12-08T07:48:10.037Z,5.60
2022-12-08T07:50:39.297Z,5.80
2022-12-08T07:53:07.459Z,5.83
2022-12-08T07:55:35.356Z,4.90
2022-12-08T07:58:03.222Z,5.87
2022-12-08T08:00:31.086Z,5.90
2022-12-08T08:02:59.042Z,5.03
2022-12-08T08:05:27.261Z,5.97
2022-12-08T08:07:56.710Z,5.87
2022-12-08T08:10:24.547Z,5.60
2022-12-08T08:12:52.383Z,5.53
2022-12-08T08:15:21.158Z,6.27
2022-12-08T08:17:51.039Z,5.93
2022-12-08T08:20:19.177Z,6.07
2022-12-08T08:22:48.218Z,5.80
2022-12-08T08:25:18.853Z,7.90
2022-12-08T08:27:48.273Z,7.70
2022-12-08T08:30:20.812Z,7.73
2022-12-08T08:32:49.191Z,8.30
2022-12-08T08:35:17.513Z,8.10
2022-12-08T08:37:48.926Z,8.50
2022-12-08T08:40:19.082Z,7.70
2022-12-08T08:42:47.036Z,7.07
2022-12-08T08:45:14.871Z,7.37
2022-12-08T08:47:42.912Z,7.50
2022-12-08T08:50:10.976Z,7.47
2022-12-08T08:52:38.793Z,7.67
2022-12-08T08:55:07.646Z,7.63
2022-12-08T08:57:36.859Z,8.23
2022-12-08T09:00:05.986Z,7.67
2022-12-08T09:02:34.943Z,8.87
2022-12-08T09:05:02.829Z,7.83
2022-12-08T09:07:30.926Z,8.27
2022-12-08T09:10:01.886Z,7.93
2022-12-08T09:12:30.931Z,8.07
2022-12-08T09:15:00.132Z,8.93
2022-12-08T09:17:27.952Z,8.33
2022-12-08T09:19:55.729Z,8.73
2022-12-08T09:22:23.991Z,9.10
2022-12-08T09:24:51.806Z,8.17
2022-12-08T09:27:19.797Z,8.10
2022-12-08T09:29:47.608Z,8.23
2022-12-08T09:32:16.791Z,8.23
2022-12-08T09:34:50.454Z,7.87
2022-12-08T09:37:19.920Z,8.03
2022-12-08T09:39:48.185Z,8.50
2022-12-08T09:42:27.030Z,9.20
2022-12-08T09:45:01.500Z,9.67
2022-12-08T09:47:36.326Z,10.30
2022-12-08T09:50:08.448Z,9.63
2022-12-08T09:52:42.385Z,8.73
2022-12-08T09:55:18.363Z,8.30
2022-12-08T09:57:51.629Z,8.77
2022-12-08T10:00:24.033Z,8.17
2022-12-08T10:02:53.487Z,9.97
2022-12-08T10:05:23.836Z,8.60
2022-12-08T10:08:04.696Z,8.27
2022-12-08T10:10:40.053Z,8.87
2022-12-08T10:13:15.419Z,8.23
2022-12-08T10:15:48.812Z,8.17
2022-12-08T10:18:21.022Z,7.83
2022-12-08T10:20:51.038Z,9.07
2022-12-08T10:23:26.544Z,8.83
2022-12-08T10:26:02.455Z,8.67
2022-12-08T10:28:30.540Z,8.67
2022-12-08T10:30:58.384Z,9.07
2022-12-08T10:33:29.601Z,8.90
2022-12-08T10:36:00.523Z,9.40
2022-12-08T10:38:31.918Z,9.73
2022-12-08T10:41:05.302Z,9.60
2022-12-08T10:43:34.300Z,9.17
2022-12-08T10:46:13.146Z,8.27
2022-12-08T10:48:51.881Z,7.67
2022-12-08T10:51:30.328Z,7.07
2022-12-08T10:53:58.398Z,7.63
2022-12-08T10:56:28.591Z,6.97
2022-12-08T10:59:15.388Z,6.27
2022-12-08T11:01:47.885Z,5.40
2022-12-08T11:04:20.621Z,5.30
2022-12-08T11:06:49.673Z,5.40
2022-12-08T11:09:31.512Z,6.10
2022-12-08T11:12:00.682Z,5.60
2022-12-08T11:14:31.060Z,5.47
2022-12-08T11:17:10.118Z,6.00
2022-12-08T11:19:40.678Z,6.07
2022-12-08T11:22:22.321Z,7.73
2022-12-08T11:24:59.854Z,6.03
2022-12-08T11:27:28.018Z,6.40
2022-12-08T11:29:56.076Z,5.83
2022-12-08T11:32:24.007Z,6.57
2022-12-08T11:34:58.929Z,5.60
2022-12-08T11:37:34.703Z,5.30
2022-12-08T11:40:08.588Z,5.77
2022-12-08T11:42:45.024Z,8.03
2022-12-08T11:45:26.801Z,6.53
2022-12-08T11:48:02.767Z,6.23
2022-12-08T11:50:41.651Z,6.30
2022-12-08T11:53:17.776Z,5.40
2022-12-08T11:55:51.586Z,6.00
2022-12-08T11:58:23.616Z,5.07
2022-12-08T12:00:51.651Z,4.70
2022-12-08T12:03:29.635Z,4.47
2022-12-08T12:06:46.452Z,4.43
2022-12-08T12:09:14.559Z,4.60
2022-12-08T12:12:09.379Z,4.50
2022-12-08T12:15:07.167Z,4.47
2022-12-08T12:17:43.843Z,4.83
2022-12-08T12:20:17.560Z,5.10
2022-12-08T12:22:50.950Z,5.03
2022-12-08T12:25:22.281Z,6.10
2022-12-08T12:27:51.061Z,6.00
2022-12-08T12:30:24.728Z,6.40
2022-12-08T12:32:56.499Z,6.53
2022-12-08T12:35:33.663Z,6.70
2022-12-08T12:38:27.202Z,6.03
2022-12-08T12:41:01.226Z,5.57
2022-12-08T12:43:32.871Z,6.83
2022-12-08T12:46:39.315Z,5.80
2022-12-08T12:49:45.891Z,6.17
2022-12-08T12:52:43.120Z,6.03
2022-12-08T12:55:52.942Z,5.73
2022-12-08T12:58:39.036Z,5.27
2022-12-08T13:01:44.479Z,5.80
2022-12-08T13:04:12.743Z,6.10
2022-12-08T13:06:43.237Z,7.07
2022-12-08T13:09:22.739Z,6.63
2022-12-08T13:11:54.301Z,6.90
2022-12-08T13:14:32.356Z,6.63
2022-12-08T13:17:02.411Z,6.33
2022-12-08T13:19:36.969Z,5.30
2022-12-08T13:22:05.104Z,6.17
2022-12-08T13:24:36.094Z,5.27
2022-12-08T13:27:52.426Z,5.80
2022-12-08T13:30:43.428Z,6.10
2022-12-08T13:33:18.486Z,6.40
2022-12-08T13:35:57.317Z,6.00
2022-12-08T13:38:30.890Z,7.07
2022-12-08T13:41:01.530Z,8.30
2022-12-08T13:43:50.985Z,6.23
2022-12-08T13:51:23.830Z,5.70
2022-12-08T13:53:56.166Z,6.17
2022-12-08T13:58:06.218Z,5.60
2022-12-08T14:00:35.532Z,5.90
2022-12-08T14:03:03.669Z,5.50
2022-12-08T14:06:11.229Z,5.30
2022-12-08T14:08:58.945Z,5.80
2022-12-08T14:11:34.380Z,5.47
2022-12-08T14:14:05.076Z,6.10
2022-12-08T14:16:39.473Z,5.47
2022-12-08T14:19:15.956Z,5.90
2022-12-08T14:21:48.055Z,6.20
2022-12-08T14:24:15.928Z,7.60
2022-12-08T14:26:47.421Z,8.10
2022-12-08T14:29:39.906Z,5.93
2022-12-08T14:32:21.521Z,6.60
2022-12-08T14:34:54.787Z,10.63
2022-12-08T14:37:23.545Z,8.03
2022-12-08T14:39:53.003Z,9.57
2022-12-08T14:42:25.023Z,6.80
2022-12-08T14:45:06.614Z,6.63
2022-12-08T14:47:35.884Z,5.83
2022-12-08T14:50:07.281Z,7.13
2022-12-08T14:52:35.387Z,6.87
2022-12-08T14:55:03.222Z,6.43
2022-12-08T14:57:36.225Z,6.27
2022-12-08T15:00:12.142Z,6.27
2022-12-08T15:02:47.041Z,8.00
2022-12-08T15:05:19.034Z,9.17
2022-12-08T15:07:49.898Z,7.43
2022-12-08T15:10:24.727Z,10.13
2022-12-08T15:13:01.748Z,8.43
2022-12-08T15:15:31.871Z,7.63
2022-12-08T15:18:05.172Z,12.33
2022-12-08T15:20:41.566Z,10.00
2022-12-08T15:23:27.182Z,7.50
2022-12-08T15:25:56.046Z,9.30
2022-12-08T15:28:29.790Z,8.83
2022-12-08T15:30:58.766Z,13.53
2022-12-08T15:33:28.169Z,8.97
2022-12-08T15:35:56.087Z,14.00
2022-12-08T15:38:26.445Z,7.93
2022-12-08T15:40:55.344Z,7.97
2022-12-08T15:43:23.804Z,7.83
2022-12-08T15:45:58.941Z,7.63
2022-12-08T15:48:30.174Z,9.20
2022-12-08T15:50:58.431Z,9.50
2022-12-08T15:53:26.319Z,8.37
2022-12-08T15:58:58.653Z,6.90
2022-12-08T16:01:27.247Z,7.00
2022-12-08T16:09:39.291Z,7.23
2022-12-08T16:12:25.707Z,10.47
2022-12-08T16:17:41.981Z,9.10
2022-12-08T16:20:14.898Z,8.33
2022-12-08T16:23:07.943Z,16.23
2022-12-08T16:25:46.005Z,16.67
2022-12-08T16:28:52.382Z,14.20
2022-12-08T16:31:13.050Z,12.53
2022-12-08T16:33:41.954Z,12.50
2022-12-08T16:36:12.075Z,11.77
2022-12-08T16:38:40.011Z,9.53
2022-12-08T16:41:25.679Z,8.37
2022-12-08T16:43:53.498Z,7.60
2022-12-08T16:46:23.722Z,7.67
2022-12-08T16:48:51.661Z,7.93
2022-12-08T16:51:26.654Z,9.50
2022-12-08T16:53:55.224Z,9.50
2022-12-08T16:56:30.365Z,18.93
2022-12-08T16:59:00.612Z,12.73
2022-12-08T17:01:28.531Z,12.07
2022-12-08T17:04:29.265Z,12.57
2022-12-08T17:06:45.667Z,10.67
2022-12-08T17:09:13.453Z,11.20
2022-12-08T17:11:43.681Z,10.27
2022-12-08T17:14:12.186Z,11.40
2022-12-08T17:16:40.191Z,10.07
2022-12-08T17:19:08.455Z,11.50
2022-12-08T17:21:36.596Z,12.00
2022-12-08T17:24:06.185Z,11.53
2022-12-08T17:26:34.176Z,10.90
2022-12-08T17:29:03.275Z,12.83
2022-12-08T17:31:32.950Z,12.47
2022-12-08T17:34:01.176Z,11.80
2022-12-08T17:36:29.105Z,12.27
2022-12-08T17:38:57.524Z,11.53
2022-12-08T17:41:26.711Z,10.40
2022-12-08T17:43:54.520Z,10.90
2022-12-08T17:46:23.240Z,10.30
2022-12-08T17:48:51.364Z,9.27
2022-12-08T17:51:20.085Z,10.67
2022-12-08T17:53:47.880Z,14.17
2022-12-08T17:56:18.291Z,9.07
2022-12-08T17:58:52.849Z,10.23
2022-12-08T18:01:22.800Z,12.43
2022-12-08T18:03:50.857Z,13.33
2022-12-08T18:06:18.719Z,12.60
2022-12-08T18:08:46.553Z,12.00
2022-12-08T18:11:17.086Z,12.70
2022-12-08T18:13:47.038Z,11.97
2022-12-08T18:16:15.364Z,9.87
2022-12-08T18:18:43.302Z,8.80
2022-12-08T18:21:12.087Z,9.30
2022-12-08T18:23:41.080Z,8.53
2022-12-08T18:26:11.744Z,9.20
2022-12-08T18:28:40.136Z,9.43
2022-12-08T18:31:11.622Z,8.93
2022-12-08T18:33:41.739Z,9.07
2022-12-08T18:36:11.282Z,10.17
2022-12-08T18:38:39.990Z,9.73
2022-12-08T18:41:09.005Z,11.20
2022-12-08T18:43:37.392Z,11.07
2022-12-08T18:46:09.283Z,11.37
2022-12-08T18:48:41.266Z,10.90
2022-12-08T18:51:11.216Z,11.77
2022-12-08T18:53:39.584Z,15.10
2022-12-08T18:56:08.471Z,12.87
2022-12-08T18:58:36.704Z,12.23
2022-12-08T19:01:04.542Z,11.93
2022-12-08T19:03:32.499Z,12.67
2022-12-08T19:06:05.365Z,12.90
2022-12-08T19:08:33.864Z,12.50
2022-12-08T19:11:01.862Z,11.93
2022-12-08T19:13:30.364Z,12.70
2022-12-08T19:15:58.228Z,11.30
2022-12-08T19:18:26.086Z,16.37
2022-12-08T19:20:56.630Z,17.87
2022-12-08T19:23:26.070Z,12.67
2022-12-08T19:25:53.861Z,14.37
2022-12-08T19:28:21.722Z,13.13
2022-12-08T19:30:49.632Z,13.03
2022-12-08T19:33:17.757Z,12.57
2022-12-08T19:35:52.255Z,13.23
2022-12-08T19:38:20.692Z,12.47
2022-12-08T19:41:09.795Z,12.60
2022-12-08T19:43:55.181Z,12.10
2022-12-08T19:46:23.230Z,14.17
2022-12-08T19:48:51.226Z,15.63
2022-12-08T19:51:19.128Z,11.43
2022-12-08T19:53:47.929Z,14.33
2022-12-08T19:56:17.297Z,13.67
2022-12-08T19:58:45.148Z,13.40
2022-12-08T20:01:12.992Z,14.00
2022-12-08T20:03:40.974Z,15.03
2022-12-08T20:06:14.171Z,14.47
2022-12-08T20:08:44.914Z,14.20
2022-12-08T20:11:18.285Z,13.03
2022-12-08T20:13:47.636Z,13.50
2022-12-08T20:16:16.865Z,12.57
2022-12-08T20:18:47.634Z,13.87
2022-12-08T20:21:15.722Z,23.43
2022-12-08T20:23:45.330Z,21.13
2022-12-08T20:26:16.981Z,17.93
2022-12-08T20:28:46.379Z,17.60
2022-12-08T20:31:19.052Z,17.23
2022-12-08T20:33:47.953Z,16.10
2022-12-08T20:36:18.729Z,15.10
2022-12-08T20:38:47.213Z,15.40
2022-12-08T20:41:16.575Z,15.97
2022-12-08T20:43:47.102Z,15.57
2022-12-08T20:46:17.790Z,15.53
2022-12-08T20:48:46.023Z,15.60
2022-12-08T20:51:15.283Z,16.40
2022-12-08T20:53:43.388Z,15.53
2022-12-08T20:56:15.695Z,15.97
2022-12-08T20:58:44.023Z,17.20
2022-12-08T21:01:15.431Z,16.40
2022-12-08T21:03:44.187Z,16.60
2022-12-08T21:06:12.760Z,15.30
2022-12-08T21:08:41.927Z,14.57
2022-12-08T21:11:10.675Z,14.17
2022-12-08T21:13:39.825Z,13.83
2022-12-08T21:16:09.398Z,13.33
2022-12-08T21:18:39.921Z,13.27
2022-12-08T21:21:10.347Z,13.30
2022-12-08T21:23:38.932Z,14.17
2022-12-08T21:26:12.080Z,14.03
2022-12-08T21:28:40.080Z,13.40
2022-12-08T21:31:09.019Z,18.20
2022-12-08T21:33:38.857Z,17.73
2022-12-08T21:36:09.461Z,15.17
2022-12-08T21:38:38.561Z,14.17
2022-12-08T21:41:08.852Z,15.07
2022-12-08T21:43:37.235Z,15.53
2022-12-08T21:46:05.652Z,15.70
2022-12-08T21:48:33.772Z,14.83
2022-12-08T21:51:06.482Z,16.57
2022-12-08T21:53:34.552Z,15.13
2022-12-08T21:56:02.626Z,15.53
2022-12-08T21:58:32.380Z,16.37
2022-12-08T22:01:06.690Z,14.83
2022-12-08T22:03:34.789Z,15.07
2022-12-08T22:06:07.076Z,15.20
2022-12-08T22:08:35.340Z,15.57
2022-12-08T22:11:03.842Z,16.00
2022-12-08T22:13:34.303Z,15.07
2022-12-08T22:16:04.444Z,15.97
2022-12-08T22:18:32.935Z,15.17
2022-12-08T22:21:01.531Z,15.87
2022-12-08T22:23:30.857Z,16.27
2022-12-08T22:25:59.651Z,15.43
2022-12-08T22:28:28.766Z,15.90
2022-12-08T22:30:56.670Z,16.67
2022-12-08T22:33:24.793Z,15.70
2022-12-08T22:35:57.470Z,17.33
2022-12-08T22:38:25.940Z,16.50
2022-12-08T22:40:56.659Z,15.30
2022-12-08T22:43:24.609Z,15.87
2022-12-08T22:45:52.624Z,15.33
2022-12-08T22:48:20.583Z,16.90
2022-12-08T22:50:48.406Z,18.23
2022-12-08T22:53:16.336Z,17.30
2022-12-08T22:55:45.362Z,15.73
2022-12-08T22:58:14.671Z,17.27
2022-12-08T23:00:42.661Z,16.27
2022-12-08T23:03:10.579Z,17.67
2022-12-08T23:05:40.437Z,18.97
2022-12-08T23:08:10.085Z,19.13
2022-12-08T23:10:37.911Z,16.83
2022-12-08T23:13:05.868Z,17.57
2022-12-08T23:15:35.294Z,17.87
2022-12-08T23:18:03.436Z,16.27
2022-12-08T23:20:31.623Z,15.73
2022-12-08T23:22:59.981Z,16.67
2022-12-08T23:25:27.844Z,17.40
2022-12-08T23:27:55.693Z,16.30
2022-12-08T23:30:23.603Z,16.27
2022-12-08T23:32:55.747Z,16.77
2022-12-08T23:35:24.219Z,16.30
2022-12-08T23:37:53.333Z,16.67
2022-12-08T23:40:21.497Z,18.07
2022-12-08T23:42:49.350Z,17.03
2022-12-08T23:45:17.329Z,16.90
2022-12-08T23:47:45.589Z,17.80
2022-12-08T23:50:14.952Z,17.73
2022-12-08T23:52:42.723Z,17.17
2022-12-08T23:55:11.287Z,17.27
2022-12-08T23:57:39.291Z,17.20
